sensor_id;sensor_type;location;lat;lon;timestamp;pressure;altitude;pressure_sealevel;temperature;humidity
76337;BME280;65157;50.082;18.178;2023-02-08T00:00:43;101847.84;;;-2.22;76.75
76337;BME280;65157;50.082;18.178;2023-02-08T00:03:24;101848.56;;;-2.18;76.81
76337;BME280;65157;50.082;18.178;2023-02-08T00:05:50;101849.95;;;-2.14;76.95
76337;BME280;65157;50.082;18.178;2023-02-08T00:08:17;101852.09;;;-2.10;76.91
76337;BME280;65157;50.082;18.178;2023-02-08T00:10:43;101851.67;;;-2.07;76.62
76337;BME280;65157;50.082;18.178;2023-02-08T00:13:10;101851.95;;;-2.06;76.53
76337;BME280;65157;50.082;18.178;2023-02-08T00:15:44;101853.64;;;-2.06;76.65
76337;BME280;65157;50.082;18.178;2023-02-08T00:18:12;101857.55;;;-2.08;76.56
76337;BME280;65157;50.082;18.178;2023-02-08T00:20:41;101857.09;;;-2.10;76.53
76337;BME280;65157;50.082;18.178;2023-02-08T00:23:09;101852.38;;;-2.14;76.49
76337;BME280;65157;50.082;18.178;2023-02-08T00:25:36;101853.21;;;-2.18;76.60
76337;BME280;65157;50.082;18.178;2023-02-08T00:28:03;101855.98;;;-2.21;76.54
76337;BME280;65157;50.082;18.178;2023-02-08T00:30:30;101849.60;;;-2.21;76.61
76337;BME280;65157;50.082;18.178;2023-02-08T00:32:57;101843.44;;;-2.20;76.57
76337;BME280;65157;50.082;18.178;2023-02-08T00:35:24;101842.24;;;-2.23;76.70
76337;BME280;65157;50.082;18.178;2023-02-08T00:37:50;101844.22;;;-2.25;76.79
76337;BME280;65157;50.082;18.178;2023-02-08T00:40:17;101845.81;;;-2.24;77.14
76337;BME280;65157;50.082;18.178;2023-02-08T00:42:44;101842.64;;;-2.18;77.16
76337;BME280;65157;50.082;18.178;2023-02-08T00:45:11;101840.73;;;-2.15;77.07
76337;BME280;65157;50.082;18.178;2023-02-08T00:47:37;101847.77;;;-2.16;76.86
76337;BME280;65157;50.082;18.178;2023-02-08T00:50:04;101849.61;;;-2.17;77.10
76337;BME280;65157;50.082;18.178;2023-02-08T00:52:31;101855.17;;;-2.17;77.10
76337;BME280;65157;50.082;18.178;2023-02-08T00:54:58;101846.77;;;-2.19;76.94
76337;BME280;65157;50.082;18.178;2023-02-08T00:57:24;101849.07;;;-2.25;77.16
76337;BME280;65157;50.082;18.178;2023-02-08T00:59:51;101853.10;;;-2.31;77.21
76337;BME280;65157;50.082;18.178;2023-02-08T01:02:17;101850.23;;;-2.33;77.29
76337;BME280;65157;50.082;18.178;2023-02-08T01:04:44;101845.39;;;-2.33;77.13
76337;BME280;65157;50.082;18.178;2023-02-08T01:07:11;101853.59;;;-2.31;77.51
76337;BME280;65157;50.082;18.178;2023-02-08T01:09:37;101850.02;;;-2.26;77.51
76337;BME280;65157;50.082;18.178;2023-02-08T01:12:04;101851.67;;;-2.21;77.16
76337;BME280;65157;50.082;18.178;2023-02-08T01:14:31;101847.43;;;-2.16;77.50
76337;BME280;65157;50.082;18.178;2023-02-08T01:16:57;101844.19;;;-2.12;77.22
76337;BME280;65157;50.082;18.178;2023-02-08T01:19:24;101842.79;;;-2.09;77.30
76337;BME280;65157;50.082;18.178;2023-02-08T01:21:51;101838.77;;;-2.06;77.28
76337;BME280;65157;50.082;18.178;2023-02-08T01:24:17;101837.61;;;-2.05;77.30
76337;BME280;65157;50.082;18.178;2023-02-08T01:26:44;101839.36;;;-2.05;77.22
76337;BME280;65157;50.082;18.178;2023-02-08T01:29:11;101836.39;;;-2.05;77.29
76337;BME280;65157;50.082;18.178;2023-02-08T01:31:39;101834.43;;;-2.06;77.19
76337;BME280;65157;50.082;18.178;2023-02-08T01:34:07;101836.88;;;-2.06;77.21
76337;BME280;65157;50.082;18.178;2023-02-08T01:36:34;101838.21;;;-2.04;77.21
76337;BME280;65157;50.082;18.178;2023-02-08T01:39:02;101834.46;;;-1.99;77.17
76337;BME280;65157;50.082;18.178;2023-02-08T01:41:36;101835.17;;;-1.95;77.15
76337;BME280;65157;50.082;18.178;2023-02-08T01:46:45;101834.32;;;-1.91;77.10
76337;BME280;65157;50.082;18.178;2023-02-08T01:49:20;101830.66;;;-1.92;77.12
76337;BME280;65157;50.082;18.178;2023-02-08T01:52:01;101829.94;;;-1.93;77.03
76337;BME280;65157;50.082;18.178;2023-02-08T01:54:38;101833.06;;;-1.93;77.06
76337;BME280;65157;50.082;18.178;2023-02-08T01:57:06;101832.45;;;-1.94;77.01
76337;BME280;65157;50.082;18.178;2023-02-08T01:59:49;101825.96;;;-1.96;77.17
76337;BME280;65157;50.082;18.178;2023-02-08T02:02:19;101818.91;;;-1.95;77.03
76337;BME280;65157;50.082;18.178;2023-02-08T02:04:47;101804.63;;;-1.93;77.21
76337;BME280;65157;50.082;18.178;2023-02-08T02:07:15;101801.35;;;-1.93;77.25
76337;BME280;65157;50.082;18.178;2023-02-08T02:12:34;101794.37;;;-1.94;77.13
76337;BME280;65157;50.082;18.178;2023-02-08T02:15:03;101800.52;;;-1.89;77.15
76337;BME280;65157;50.082;18.178;2023-02-08T02:17:30;101799.84;;;-1.92;76.79
76337;BME280;65157;50.082;18.178;2023-02-08T02:20:08;101797.23;;;-1.96;76.87
76337;BME280;65157;50.082;18.178;2023-02-08T02:22:57;101794.75;;;-2.04;77.04
76337;BME280;65157;50.082;18.178;2023-02-08T02:26:07;101786.52;;;-2.09;77.02
76337;BME280;65157;50.082;18.178;2023-02-08T02:34:01;101787.26;;;-2.30;77.11
76337;BME280;65157;50.082;18.178;2023-02-08T02:36:52;101784.52;;;-2.29;77.09
76337;BME280;65157;50.082;18.178;2023-02-08T02:39:34;101789.39;;;-2.29;77.24
76337;BME280;65157;50.082;18.178;2023-02-08T02:42:13;101789.84;;;-2.23;77.57
76337;BME280;65157;50.082;18.178;2023-02-08T02:47:54;101790.89;;;-2.12;77.38
76337;BME280;65157;50.082;18.178;2023-02-08T02:50:39;101788.73;;;-2.10;77.07
76337;BME280;65157;50.082;18.178;2023-02-08T02:55:43;101787.67;;;-2.28;77.36
76337;BME280;65157;50.082;18.178;2023-02-08T02:58:14;101789.90;;;-2.39;77.48
76337;BME280;65157;50.082;18.178;2023-02-08T03:00:41;101785.02;;;-2.50;77.57
76337;BME280;65157;50.082;18.178;2023-02-08T03:03:19;101791.10;;;-2.49;77.51
76337;BME280;65157;50.082;18.178;2023-02-08T03:05:48;101805.58;;;-2.47;77.63
76337;BME280;65157;50.082;18.178;2023-02-08T03:09:13;101805.81;;;-2.46;77.56
76337;BME280;65157;50.082;18.178;2023-02-08T03:11:17;101812.13;;;-2.44;77.74
76337;BME280;65157;50.082;18.178;2023-02-08T03:22:43;101816.40;;;-2.21;77.50
76337;BME280;65157;50.082;18.178;2023-02-08T03:25:18;101818.19;;;-2.20;77.65
76337;BME280;65157;50.082;18.178;2023-02-08T03:28:06;101814.88;;;-2.20;77.53
76337;BME280;65157;50.082;18.178;2023-02-08T03:30:44;101819.71;;;-2.24;77.72
76337;BME280;65157;50.082;18.178;2023-02-08T03:33:23;101829.17;;;-2.25;77.43
76337;BME280;65157;50.082;18.178;2023-02-08T03:36:00;101834.25;;;-2.23;77.64
76337;BME280;65157;50.082;18.178;2023-02-08T03:38:32;101843.67;;;-2.22;77.61
76337;BME280;65157;50.082;18.178;2023-02-08T03:41:03;101846.91;;;-2.23;77.63
76337;BME280;65157;50.082;18.178;2023-02-08T03:43:42;101841.25;;;-2.19;77.68
76337;BME280;65157;50.082;18.178;2023-02-08T03:46:22;101848.37;;;-2.15;77.82
76337;BME280;65157;50.082;18.178;2023-02-08T03:48:55;101845.63;;;-2.11;77.84
76337;BME280;65157;50.082;18.178;2023-02-08T03:51:25;101838.45;;;-2.06;77.84
76337;BME280;65157;50.082;18.178;2023-02-08T03:53:56;101840.13;;;-2.04;77.74
76337;BME280;65157;50.082;18.178;2023-02-08T03:56:55;101848.06;;;-2.04;77.78
76337;BME280;65157;50.082;18.178;2023-02-08T03:59:33;101845.97;;;-2.07;77.80
76337;BME280;65157;50.082;18.178;2023-02-08T04:02:05;101848.00;;;-2.08;77.84
76337;BME280;65157;50.082;18.178;2023-02-08T04:04:35;101849.24;;;-2.08;77.77
76337;BME280;65157;50.082;18.178;2023-02-08T04:07:04;101845.73;;;-2.05;77.91
76337;BME280;65157;50.082;18.178;2023-02-08T04:09:30;101855.19;;;-2.00;77.89
76337;BME280;65157;50.082;18.178;2023-02-08T04:11:57;101854.90;;;-1.95;77.80
76337;BME280;65157;50.082;18.178;2023-02-08T04:14:23;101849.27;;;-1.91;77.72
76337;BME280;65157;50.082;18.178;2023-02-08T04:16:50;101849.63;;;-1.86;77.96
76337;BME280;65157;50.082;18.178;2023-02-08T04:19:17;101846.18;;;-1.86;77.92
76337;BME280;65157;50.082;18.178;2023-02-08T04:21:43;101846.17;;;-1.86;77.92
76337;BME280;65157;50.082;18.178;2023-02-08T04:24:10;101844.20;;;-1.88;77.67
76337;BME280;65157;50.082;18.178;2023-02-08T04:26:36;101845.30;;;-1.90;77.72
76337;BME280;65157;50.082;18.178;2023-02-08T04:29:03;101845.71;;;-1.92;77.74
76337;BME280;65157;50.082;18.178;2023-02-08T04:31:30;101847.09;;;-1.92;77.85
76337;BME280;65157;50.082;18.178;2023-02-08T04:33:56;101845.02;;;-1.92;77.84
76337;BME280;65157;50.082;18.178;2023-02-08T04:36:23;101844.73;;;-1.91;78.03
76337;BME280;65157;50.082;18.178;2023-02-08T04:38:50;101846.60;;;-1.88;77.86
76337;BME280;65157;50.082;18.178;2023-02-08T04:41:16;101851.27;;;-1.85;77.88
76337;BME280;65157;50.082;18.178;2023-02-08T04:43:43;101855.40;;;-1.82;77.77
76337;BME280;65157;50.082;18.178;2023-02-08T04:46:09;101854.45;;;-1.80;77.74
76337;BME280;65157;50.082;18.178;2023-02-08T04:48:36;101861.41;;;-1.79;78.00
76337;BME280;65157;50.082;18.178;2023-02-08T04:51:04;101862.71;;;-1.77;77.91
76337;BME280;65157;50.082;18.178;2023-02-08T04:53:31;101865.23;;;-1.79;77.87
76337;BME280;65157;50.082;18.178;2023-02-08T04:55:58;101871.81;;;-1.82;77.96
76337;BME280;65157;50.082;18.178;2023-02-08T04:58:24;101870.79;;;-1.85;77.77
76337;BME280;65157;50.082;18.178;2023-02-08T05:00:51;101874.95;;;-1.85;77.80
76337;BME280;65157;50.082;18.178;2023-02-08T05:03:18;101876.41;;;-1.84;78.07
76337;BME280;65157;50.082;18.178;2023-02-08T05:05:45;101876.70;;;-1.82;77.84
76337;BME280;65157;50.082;18.178;2023-02-08T05:08:12;101877.34;;;-1.79;77.89
76337;BME280;65157;50.082;18.178;2023-02-08T05:10:43;101878.77;;;-1.75;77.82
76337;BME280;65157;50.082;18.178;2023-02-08T05:13:10;101880.84;;;-1.72;77.88
76337;BME280;65157;50.082;18.178;2023-02-08T05:15:37;101875.55;;;-1.69;77.90
76337;BME280;65157;50.082;18.178;2023-02-08T05:18:03;101876.98;;;-1.69;77.81
76337;BME280;65157;50.082;18.178;2023-02-08T05:20:30;101878.84;;;-1.70;77.78
76337;BME280;65157;50.082;18.178;2023-02-08T05:22:56;101877.70;;;-1.72;77.93
76337;BME280;65157;50.082;18.178;2023-02-08T05:25:23;101877.00;;;-1.79;77.98
76337;BME280;65157;50.082;18.178;2023-02-08T05:27:50;101878.83;;;-1.77;77.91
76337;BME280;65157;50.082;18.178;2023-02-08T05:30:16;101877.17;;;-1.76;77.88
76337;BME280;65157;50.082;18.178;2023-02-08T05:32:43;101874.02;;;-1.73;77.85
76337;BME280;65157;50.082;18.178;2023-02-08T05:35:10;101874.46;;;-1.67;77.73
76337;BME280;65157;50.082;18.178;2023-02-08T05:37:36;101874.42;;;-1.64;77.80
76337;BME280;65157;50.082;18.178;2023-02-08T05:40:03;101880.71;;;-1.63;77.86
76337;BME280;65157;50.082;18.178;2023-02-08T05:42:30;101882.66;;;-1.62;78.02
76337;BME280;65157;50.082;18.178;2023-02-08T05:44:56;101880.40;;;-1.63;77.86
76337;BME280;65157;50.082;18.178;2023-02-08T05:47:23;101886.95;;;-1.63;77.84
76337;BME280;65157;50.082;18.178;2023-02-08T05:49:50;101885.58;;;-1.66;77.85
76337;BME280;65157;50.082;18.178;2023-02-08T05:52:16;101888.35;;;-1.70;78.04
76337;BME280;65157;50.082;18.178;2023-02-08T05:54:43;101887.52;;;-1.73;78.03
76337;BME280;65157;50.082;18.178;2023-02-08T05:57:10;101887.33;;;-1.73;78.16
76337;BME280;65157;50.082;18.178;2023-02-08T05:59:36;101885.20;;;-1.71;78.25
76337;BME280;65157;50.082;18.178;2023-02-08T06:02:03;101883.27;;;-1.67;78.05
76337;BME280;65157;50.082;18.178;2023-02-08T06:04:30;101882.39;;;-1.64;78.29
76337;BME280;65157;50.082;18.178;2023-02-08T06:06:56;101878.54;;;-1.62;78.22
76337;BME280;65157;50.082;18.178;2023-02-08T06:09:23;101880.38;;;-1.60;78.09
76337;BME280;65157;50.082;18.178;2023-02-08T06:11:49;101876.95;;;-1.59;78.19
76337;BME280;65157;50.082;18.178;2023-02-08T06:14:16;101880.87;;;-1.60;78.15
76337;BME280;65157;50.082;18.178;2023-02-08T06:16:42;101888.02;;;-1.62;78.13
76337;BME280;65157;50.082;18.178;2023-02-08T06:19:09;101885.80;;;-1.66;78.29
76337;BME280;65157;50.082;18.178;2023-02-08T06:21:36;101887.19;;;-1.65;78.16
76337;BME280;65157;50.082;18.178;2023-02-08T06:24:02;101887.06;;;-1.65;78.19
76337;BME280;65157;50.082;18.178;2023-02-08T06:26:29;101884.64;;;-1.61;78.34
76337;BME280;65157;50.082;18.178;2023-02-08T06:28:57;101886.02;;;-1.57;78.06
76337;BME280;65157;50.082;18.178;2023-02-08T06:31:24;101890.52;;;-1.54;78.32
76337;BME280;65157;50.082;18.178;2023-02-08T06:33:51;101891.25;;;-1.53;78.24
76337;BME280;65157;50.082;18.178;2023-02-08T06:36:17;101892.87;;;-1.52;78.06
76337;BME280;65157;50.082;18.178;2023-02-08T06:38:44;101893.91;;;-1.52;78.07
76337;BME280;65157;50.082;18.178;2023-02-08T06:41:10;101890.88;;;-1.54;77.90
76337;BME280;65157;50.082;18.178;2023-02-08T06:43:37;101888.32;;;-1.57;78.07
76337;BME280;65157;50.082;18.178;2023-02-08T06:46:04;101887.66;;;-1.59;78.17
76337;BME280;65157;50.082;18.178;2023-02-08T06:48:30;101895.17;;;-1.58;78.10
76337;BME280;65157;50.082;18.178;2023-02-08T06:50:57;101892.48;;;-1.56;77.96
76337;BME280;65157;50.082;18.178;2023-02-08T06:53:23;101894.02;;;-1.53;78.10
76337;BME280;65157;50.082;18.178;2023-02-08T06:55:50;101898.05;;;-1.49;78.16
76337;BME280;65157;50.082;18.178;2023-02-08T06:58:17;101900.00;;;-1.44;77.99
76337;BME280;65157;50.082;18.178;2023-02-08T07:00:44;101903.98;;;-1.41;78.01
76337;BME280;65157;50.082;18.178;2023-02-08T07:03:12;101905.20;;;-1.41;78.06
76337;BME280;65157;50.082;18.178;2023-02-08T07:05:39;101903.48;;;-1.40;78.10
76337;BME280;65157;50.082;18.178;2023-02-08T07:08:06;101905.18;;;-1.41;77.80
76337;BME280;65157;50.082;18.178;2023-02-08T07:10:33;101907.02;;;-1.43;78.06
76337;BME280;65157;50.082;18.178;2023-02-08T07:13:03;101906.28;;;-1.44;78.01
76337;BME280;65157;50.082;18.178;2023-02-08T07:15:29;101909.54;;;-1.44;77.97
76337;BME280;65157;50.082;18.178;2023-02-08T07:17:56;101910.52;;;-1.42;78.15
76337;BME280;65157;50.082;18.178;2023-02-08T07:20:23;101913.00;;;-1.37;78.07
76337;BME280;65157;50.082;18.178;2023-02-08T07:22:49;101912.50;;;-1.33;77.87
76337;BME280;65157;50.082;18.178;2023-02-08T07:25:16;101920.83;;;-1.29;77.90
76337;BME280;65157;50.082;18.178;2023-02-08T07:27:43;101911.69;;;-1.29;78.12
76337;BME280;65157;50.082;18.178;2023-02-08T07:30:10;101920.48;;;-1.26;78.04
76337;BME280;65157;50.082;18.178;2023-02-08T07:32:36;101924.92;;;-1.27;78.24
76337;BME280;65157;50.082;18.178;2023-02-08T07:35:03;101920.05;;;-1.27;78.15
76337;BME280;65157;50.082;18.178;2023-02-08T07:37:30;101928.70;;;-1.28;78.22
76337;BME280;65157;50.082;18.178;2023-02-08T07:39:57;101927.13;;;-1.28;78.35
76337;BME280;65157;50.082;18.178;2023-02-08T07:42:23;101925.44;;;-1.27;78.26
76337;BME280;65157;50.082;18.178;2023-02-08T07:44:50;101925.36;;;-1.25;78.30
76337;BME280;65157;50.082;18.178;2023-02-08T07:47:17;101920.91;;;-1.21;78.12
76337;BME280;65157;50.082;18.178;2023-02-08T07:49:43;101917.73;;;-1.14;78.26
76337;BME280;65157;50.082;18.178;2023-02-08T07:52:10;101920.34;;;-1.07;78.20
76337;BME280;65157;50.082;18.178;2023-02-08T07:54:37;101921.79;;;-1.02;78.15
76337;BME280;65157;50.082;18.178;2023-02-08T07:57:03;101926.23;;;-0.96;77.99
76337;BME280;65157;50.082;18.178;2023-02-08T07:59:30;101920.03;;;-0.95;78.06
76337;BME280;65157;50.082;18.178;2023-02-08T08:01:56;101928.05;;;-0.87;78.03
76337;BME280;65157;50.082;18.178;2023-02-08T08:04:23;101927.92;;;-0.86;77.96
76337;BME280;65157;50.082;18.178;2023-02-08T08:06:49;101930.39;;;-0.89;77.85
76337;BME280;65157;50.082;18.178;2023-02-08T08:09:16;101937.23;;;-0.94;77.85
76337;BME280;65157;50.082;18.178;2023-02-08T08:11:43;101939.05;;;-1.00;77.83
76337;BME280;65157;50.082;18.178;2023-02-08T08:14:09;101939.06;;;-1.03;78.01
76337;BME280;65157;50.082;18.178;2023-02-08T08:16:36;101946.03;;;-1.03;78.35
76337;BME280;65157;50.082;18.178;2023-02-08T08:19:03;101952.06;;;-1.03;78.13
76337;BME280;65157;50.082;18.178;2023-02-08T08:21:29;101958.36;;;-1.05;78.18
76337;BME280;65157;50.082;18.178;2023-02-08T08:23:56;101959.58;;;-1.09;78.16
76337;BME280;65157;50.082;18.178;2023-02-08T08:26:22;101966.67;;;-1.13;78.38
76337;BME280;65157;50.082;18.178;2023-02-08T08:28:49;101968.60;;;-1.16;78.56
76337;BME280;65157;50.082;18.178;2023-02-08T08:31:18;101963.73;;;-1.20;78.44
76337;BME280;65157;50.082;18.178;2023-02-08T08:33:46;101949.15;;;-1.21;78.59
76337;BME280;65157;50.082;18.178;2023-02-08T08:36:12;101952.94;;;-1.18;78.75
76337;BME280;65157;50.082;18.178;2023-02-08T08:38:39;101958.17;;;-1.17;78.58
76337;BME280;65157;50.082;18.178;2023-02-08T08:41:11;101960.96;;;-1.16;78.88
76337;BME280;65157;50.082;18.178;2023-02-08T08:43:38;101963.44;;;-1.15;78.63
76337;BME280;65157;50.082;18.178;2023-02-08T08:46:06;101960.04;;;-1.14;78.66
76337;BME280;65157;50.082;18.178;2023-02-08T08:48:34;101958.84;;;-1.14;78.89
76337;BME280;65157;50.082;18.178;2023-02-08T08:51:02;101957.02;;;-1.16;78.76
76337;BME280;65157;50.082;18.178;2023-02-08T08:53:29;101962.66;;;-1.18;78.51
76337;BME280;65157;50.082;18.178;2023-02-08T08:55:55;101963.16;;;-1.14;78.62
76337;BME280;65157;50.082;18.178;2023-02-08T08:58:22;101961.92;;;-1.07;78.43
76337;BME280;65157;50.082;18.178;2023-02-08T09:00:49;101967.79;;;-1.04;78.07
76337;BME280;65157;50.082;18.178;2023-02-08T09:03:16;101964.63;;;-1.01;77.85
76337;BME280;65157;50.082;18.178;2023-02-08T09:05:42;101962.63;;;-1.00;77.61
76337;BME280;65157;50.082;18.178;2023-02-08T09:08:09;101969.77;;;-0.99;77.95
76337;BME280;65157;50.082;18.178;2023-02-08T09:10:36;101962.81;;;-1.03;77.65
76337;BME280;65157;50.082;18.178;2023-02-08T09:13:02;101969.38;;;-1.03;76.78
76337;BME280;65157;50.082;18.178;2023-02-08T09:15:29;101970.04;;;-1.04;77.18
76337;BME280;65157;50.082;18.178;2023-02-08T09:17:56;101972.06;;;-1.02;76.86
76337;BME280;65157;50.082;18.178;2023-02-08T09:20:23;101970.45;;;-0.99;76.96
76337;BME280;65157;50.082;18.178;2023-02-08T09:22:49;101973.27;;;-0.95;76.68
76337;BME280;65157;50.082;18.178;2023-02-08T09:25:16;101974.64;;;-0.91;76.53
76337;BME280;65157;50.082;18.178;2023-02-08T09:27:43;101974.10;;;-0.89;76.64
76337;BME280;65157;50.082;18.178;2023-02-08T09:30:10;101974.51;;;-0.84;76.68
76337;BME280;65157;50.082;18.178;2023-02-08T09:32:36;101975.18;;;-0.80;76.23
76337;BME280;65157;50.082;18.178;2023-02-08T09:35:03;101977.52;;;-0.79;75.48
76337;BME280;65157;50.082;18.178;2023-02-08T09:37:30;101979.08;;;-0.78;75.17
76337;BME280;65157;50.082;18.178;2023-02-08T09:39:56;101980.02;;;-0.77;75.59
76337;BME280;65157;50.082;18.178;2023-02-08T09:42:29;101982.91;;;-0.71;75.33
76337;BME280;65157;50.082;18.178;2023-02-08T09:50:41;101970.85;;;-0.35;75.27
76337;BME280;65157;50.082;18.178;2023-02-08T09:53:20;101979.99;;;-0.21;74.78
76337;BME280;65157;50.082;18.178;2023-02-08T09:55:52;101972.95;;;-0.04;74.52
76337;BME280;65157;50.082;18.178;2023-02-08T09:58:26;101976.36;;;0.10;74.27
76337;BME280;65157;50.082;18.178;2023-02-08T10:00:54;101976.41;;;0.23;74.04
76337;BME280;65157;50.082;18.178;2023-02-08T10:03:42;101970.66;;;0.27;73.55
76337;BME280;65157;50.082;18.178;2023-02-08T10:06:12;101968.29;;;0.28;73.22
76337;BME280;65157;50.082;18.178;2023-02-08T10:08:41;101967.46;;;0.33;73.62
76337;BME280;65157;50.082;18.178;2023-02-08T10:14:05;101959.98;;;0.49;72.74
76337;BME280;65157;50.082;18.178;2023-02-08T10:22:04;101966.70;;;0.56;72.53
76337;BME280;65157;50.082;18.178;2023-02-08T10:27:39;101962.63;;;0.71;72.36
76337;BME280;65157;50.082;18.178;2023-02-08T10:35:35;101963.86;;;1.05;72.14
76337;BME280;65157;50.082;18.178;2023-02-08T10:38:26;101955.62;;;1.17;71.47
76337;BME280;65157;50.082;18.178;2023-02-08T10:41:00;101959.52;;;1.32;71.39
76337;BME280;65157;50.082;18.178;2023-02-08T10:48:54;101952.59;;;1.79;70.19
76337;BME280;65157;50.082;18.178;2023-02-08T10:51:25;101951.77;;;1.95;69.96
76337;BME280;65157;50.082;18.178;2023-02-08T10:53:53;101945.95;;;2.03;69.65
76337;BME280;65157;50.082;18.178;2023-02-08T10:58:59;101942.98;;;2.17;68.60
76337;BME280;65157;50.082;18.178;2023-02-08T11:01:27;101936.55;;;2.33;68.27
76337;BME280;65157;50.082;18.178;2023-02-08T11:06:26;101936.55;;;2.58;67.55
76337;BME280;65157;50.082;18.178;2023-02-08T11:08:55;101931.70;;;2.75;67.48
76337;BME280;65157;50.082;18.178;2023-02-08T11:11:22;101930.73;;;2.99;67.56
76337;BME280;65157;50.082;18.178;2023-02-08T11:13:49;101935.77;;;3.15;66.54
76337;BME280;65157;50.082;18.178;2023-02-08T11:16:22;101931.21;;;3.26;66.52
76337;BME280;65157;50.082;18.178;2023-02-08T11:18:55;101930.14;;;3.48;66.54
76337;BME280;65157;50.082;18.178;2023-02-08T11:21:26;101927.26;;;3.75;65.61
76337;BME280;65157;50.082;18.178;2023-02-08T11:23:55;101922.33;;;3.92;64.91
76337;BME280;65157;50.082;18.178;2023-02-08T11:29:12;101912.57;;;4.19;63.39
76337;BME280;65157;50.082;18.178;2023-02-08T11:31:56;101911.81;;;4.30;63.12
76337;BME280;65157;50.082;18.178;2023-02-08T11:34:32;101910.75;;;4.37;61.74
76337;BME280;65157;50.082;18.178;2023-02-08T11:37:12;101913.59;;;4.38;63.02
76337;BME280;65157;50.082;18.178;2023-02-08T11:39:43;101913.98;;;4.54;62.54
76337;BME280;65157;50.082;18.178;2023-02-08T11:44:46;101910.63;;;4.89;62.06
76337;BME280;65157;50.082;18.178;2023-02-08T11:47:15;101910.42;;;5.02;60.96
76337;BME280;65157;50.082;18.178;2023-02-08T11:49:51;101910.91;;;4.93;60.08
76337;BME280;65157;50.082;18.178;2023-02-08T11:54:47;101904.98;;;4.58;60.65
76337;BME280;65157;50.082;18.178;2023-02-08T11:57:17;101906.52;;;4.63;60.32
76337;BME280;65157;50.082;18.178;2023-02-08T11:59:49;101901.57;;;4.68;59.84
76337;BME280;65157;50.082;18.178;2023-02-08T12:02:27;101895.44;;;4.68;59.61
76337;BME280;65157;50.082;18.178;2023-02-08T12:04:56;101896.16;;;4.69;59.45
76337;BME280;65157;50.082;18.178;2023-02-08T12:07:36;101898.17;;;4.73;59.66
76337;BME280;65157;50.082;18.178;2023-02-08T12:10:44;101901.48;;;4.79;58.94
76337;BME280;65157;50.082;18.178;2023-02-08T12:16:17;101898.69;;;4.87;59.05
76337;BME280;65157;50.082;18.178;2023-02-08T12:30:26;101877.10;;;4.62;57.24
76337;BME280;65157;50.082;18.178;2023-02-08T12:41:21;101867.06;;;4.81;56.90
76337;BME280;65157;50.082;18.178;2023-02-08T12:44:09;101857.02;;;4.78;56.78
76337;BME280;65157;50.082;18.178;2023-02-08T12:54:51;101847.14;;;4.98;56.49
76337;BME280;65157;50.082;18.178;2023-02-08T12:57:21;101848.77;;;5.08;55.34
76337;BME280;65157;50.082;18.178;2023-02-08T13:00:22;101848.54;;;5.06;55.60
76337;BME280;65157;50.082;18.178;2023-02-08T13:02:57;101843.89;;;5.01;55.52
76337;BME280;65157;50.082;18.178;2023-02-08T13:05:30;101839.25;;;4.97;55.61
76337;BME280;65157;50.082;18.178;2023-02-08T13:10:55;101836.21;;;4.94;55.74
76337;BME280;65157;50.082;18.178;2023-02-08T13:13:27;101837.54;;;4.99;54.88
76337;BME280;65157;50.082;18.178;2023-02-08T13:16:01;101833.61;;;5.03;55.41
76337;BME280;65157;50.082;18.178;2023-02-08T13:18:31;101833.59;;;5.10;55.14
76337;BME280;65157;50.082;18.178;2023-02-08T13:21:05;101829.92;;;5.11;54.55
76337;BME280;65157;50.082;18.178;2023-02-08T13:23:37;101828.29;;;5.08;53.97
76337;BME280;65157;50.082;18.178;2023-02-08T13:26:22;101829.54;;;5.01;54.08
76337;BME280;65157;50.082;18.178;2023-02-08T13:28:51;101829.85;;;4.98;53.89
76337;BME280;65157;50.082;18.178;2023-02-08T13:33:57;101826.11;;;5.04;54.01
76337;BME280;65157;50.082;18.178;2023-02-08T13:36:40;101824.45;;;5.08;54.20
76337;BME280;65157;50.082;18.178;2023-02-08T13:39:36;101827.39;;;5.15;54.29
76337;BME280;65157;50.082;18.178;2023-02-08T13:42:06;101823.52;;;5.14;54.08
76337;BME280;65157;50.082;18.178;2023-02-08T13:44:38;101817.08;;;5.08;54.07
76337;BME280;65157;50.082;18.178;2023-02-08T13:47:06;101826.48;;;5.14;53.98
76337;BME280;65157;50.082;18.178;2023-02-08T14:03:28;101818.17;;;4.94;54.28
76337;BME280;65157;50.082;18.178;2023-02-08T14:06:00;101815.71;;;4.94;53.84
76337;BME280;65157;50.082;18.178;2023-02-08T14:08:43;101813.98;;;4.94;53.47
76337;BME280;65157;50.082;18.178;2023-02-08T14:14:00;101816.34;;;5.23;53.88
76337;BME280;65157;50.082;18.178;2023-02-08T14:16:39;101811.00;;;5.53;53.55
76337;BME280;65157;50.082;18.178;2023-02-08T14:21:44;101811.60;;;6.34;51.97
76337;BME280;65157;50.082;18.178;2023-02-08T14:24:20;101808.05;;;6.78;52.52
76337;BME280;65157;50.082;18.178;2023-02-08T14:26:48;101806.88;;;7.22;50.48
76337;BME280;65157;50.082;18.178;2023-02-08T14:29:22;101809.15;;;7.35;49.39
76337;BME280;65157;50.082;18.178;2023-02-08T14:31:50;101810.19;;;7.33;49.65
76337;BME280;65157;50.082;18.178;2023-02-08T14:37:29;101806.48;;;6.93;49.40
76337;BME280;65157;50.082;18.178;2023-02-08T14:45:40;101815.70;;;5.79;52.11
76337;BME280;65157;50.082;18.178;2023-02-08T14:53:22;101816.76;;;5.09;52.73
76337;BME280;65157;50.082;18.178;2023-02-08T14:58:28;101815.15;;;4.53;54.58
76337;BME280;65157;50.082;18.178;2023-02-08T15:00:59;101818.48;;;4.25;54.86
76337;BME280;65157;50.082;18.178;2023-02-08T15:03:30;101818.55;;;3.99;55.67
76337;BME280;65157;50.082;18.178;2023-02-08T15:08:49;101818.04;;;3.42;56.32
76337;BME280;65157;50.082;18.178;2023-02-08T15:11:20;101823.98;;;3.17;56.63
76337;BME280;65157;50.082;18.178;2023-02-08T15:13:49;101831.05;;;2.97;57.18
76337;BME280;65157;50.082;18.178;2023-02-08T15:16:17;101831.04;;;2.80;58.26
76337;BME280;65157;50.082;18.178;2023-02-08T15:18:45;101830.61;;;2.66;58.48